createdAt,value
2018-11-28T00:00:39.480Z,82.75
2018-11-28T00:03:09.608Z,83.03
2018-11-28T00:05:56.360Z,82.96
2018-11-28T00:08:44.357Z,83.16
2018-11-28T00:11:30.331Z,83.29
2018-11-28T00:14:18.178Z,83.36
2018-11-28T00:17:04.437Z,83.25
2018-11-28T00:19:51.210Z,83.17
2018-11-28T00:22:20.830Z,83.48
2018-11-28T00:24:50.734Z,83.42
2018-11-28T00:27:20.838Z,83.33
2018-11-28T00:29:50.179Z,83.55
2018-11-28T00:32:19.309Z,83.69
2018-11-28T00:34:48.493Z,83.54
2018-11-28T00:37:17.689Z,83.43
2018-11-28T00:39:46.790Z,83.68
2018-11-28T00:42:18.029Z,83.79
2018-11-28T00:44:47.211Z,83.72
2018-11-28T00:47:16.332Z,83.75
2018-11-28T00:49:45.450Z,83.80
2018-11-28T00:52:14.741Z,84.08
2018-11-28T00:54:43.843Z,83.95
2018-11-28T00:57:13.010Z,84.14
2018-11-28T00:59:42.196Z,84.18
2018-11-28T01:02:11.401Z,84.18
2018-11-28T01:04:41.687Z,84.32
2018-11-28T01:07:11.215Z,84.42
2018-11-28T01:09:40.459Z,84.61
2018-11-28T01:12:09.586Z,84.55
2018-11-28T01:14:38.745Z,84.51
2018-11-28T01:17:08.157Z,84.60
2018-11-28T01:19:38.167Z,84.25
2018-11-28T01:22:07.439Z,84.90
2018-11-28T01:24:36.595Z,84.80
2018-11-28T01:27:06.107Z,84.89
2018-11-28T01:29:35.229Z,85.02
2018-11-28T01:32:04.344Z,85.15
2018-11-28T01:34:33.501Z,85.13
2018-11-28T01:37:02.637Z,85.07
2018-11-28T01:39:31.809Z,84.92
2018-11-28T01:42:01.021Z,85.15
2018-11-28T01:44:30.253Z,84.98
2018-11-28T01:46:59.528Z,84.94
2018-11-28T01:49:28.579Z,85.15
2018-11-28T01:51:57.676Z,85.15
2018-11-28T01:54:26.775Z,85.26
2018-11-28T01:56:55.865Z,85.44
2018-11-28T01:59:25.000Z,85.27
2018-11-28T02:01:54.170Z,85.37
2018-11-28T02:04:23.379Z,85.55
2018-11-28T02:06:52.690Z,85.43
2018-11-28T02:09:21.821Z,85.54
2018-11-28T02:11:51.013Z,85.43
2018-11-28T02:14:20.194Z,85.61
2018-11-28T02:16:49.431Z,85.43
2018-11-28T02:19:18.563Z,85.50
2018-11-28T02:21:47.719Z,85.54
2018-11-28T02:24:16.906Z,85.67
2018-11-28T02:26:45.993Z,85.54
2018-11-28T02:29:15.207Z,85.55
2018-11-28T02:31:44.352Z,85.71
2018-11-28T02:34:13.631Z,85.70
2018-11-28T02:36:42.781Z,85.61
2018-11-28T02:39:12.503Z,85.67
2018-11-28T02:41:41.752Z,85.76
2018-11-28T02:44:10.958Z,85.88
2018-11-28T02:46:40.186Z,85.83
2018-11-28T02:49:09.381Z,85.89
2018-11-28T02:51:38.744Z,85.88
2018-11-28T02:54:07.874Z,85.80
2018-11-28T02:56:37.066Z,85.98
2018-11-28T02:59:06.315Z,86.01
2018-11-28T03:01:35.463Z,86.15
2018-11-28T03:04:04.730Z,85.99
2018-11-28T03:06:33.900Z,85.94
2018-11-28T03:09:03.160Z,85.88
2018-11-28T03:11:33.184Z,85.96
2018-11-28T03:14:02.331Z,85.86
2018-11-28T03:16:32.917Z,85.79
2018-11-28T03:19:02.268Z,86.22
2018-11-28T03:21:31.517Z,85.97
2018-11-28T03:24:02.345Z,86.30
2018-11-28T03:26:31.559Z,86.11
2018-11-28T03:29:00.715Z,85.88
2018-11-28T03:31:30.035Z,86.14
2018-11-28T03:34:01.742Z,85.75
2018-11-28T03:36:31.474Z,85.45
2018-11-28T03:39:00.755Z,85.67
2018-11-28T03:41:30.260Z,85.77
2018-11-28T03:43:59.463Z,85.66
2018-11-28T03:46:28.878Z,85.44
2018-11-28T03:48:58.104Z,85.49
2018-11-28T03:51:27.260Z,85.37
2018-11-28T03:53:57.341Z,85.16
2018-11-28T03:56:26.817Z,84.98
2018-11-28T03:58:56.429Z,85.20
2018-11-28T04:01:25.592Z,85.03
2018-11-28T04:03:56.378Z,85.06
2018-11-28T04:06:26.268Z,84.96
2018-11-28T04:08:55.388Z,85.00
2018-11-28T04:11:24.635Z,85.10
2018-11-28T04:13:54.273Z,85.08
2018-11-28T04:16:23.438Z,85.16
2018-11-28T04:18:53.456Z,85.18
2018-11-28T04:21:23.133Z,85.01
2018-11-28T04:23:53.348Z,85.18
2018-11-28T04:26:22.547Z,84.80
2018-11-28T04:28:51.676Z,84.94
2018-11-28T04:31:22.068Z,84.78
2018-11-28T04:33:52.075Z,84.69
2018-11-28T04:36:21.322Z,84.66
2018-11-28T04:38:51.047Z,84.71
2018-11-28T04:41:22.137Z,84.74
2018-11-28T04:43:52.445Z,84.83
2018-11-28T04:46:21.686Z,84.62
2018-11-28T04:48:51.666Z,84.84
2018-11-28T04:51:21.198Z,84.89
2018-11-28T04:53:54.795Z,84.92
2018-11-28T04:56:25.671Z,84.78
2018-11-28T04:58:54.801Z,84.75
2018-11-28T05:01:24.063Z,84.66
2018-11-28T05:03:53.481Z,84.60
2018-11-28T05:06:33.447Z,84.71
2018-11-28T05:09:02.658Z,84.64
2018-11-28T05:11:32.631Z,84.91
2018-11-28T05:14:02.669Z,84.34
2018-11-28T05:16:32.778Z,85.01
2018-11-28T05:19:01.930Z,84.58
2018-11-28T05:21:31.357Z,84.85
2018-11-28T05:24:00.479Z,84.57
2018-11-28T05:26:29.669Z,84.62
2018-11-28T05:28:58.772Z,84.65
2018-11-28T05:31:27.911Z,84.45
2018-11-28T05:33:57.069Z,84.90
2018-11-28T05:36:26.297Z,84.90
2018-11-28T05:38:55.458Z,84.80
2018-11-28T05:41:24.696Z,84.60
2018-11-28T05:43:53.954Z,84.45
2018-11-28T05:46:23.214Z,84.68
2018-11-28T05:48:52.592Z,84.75
2018-11-28T05:51:22.527Z,84.58
2018-11-28T05:53:51.725Z,84.84
2018-11-28T05:56:21.618Z,84.63
2018-11-28T05:58:51.055Z,84.37
2018-11-28T06:01:21.574Z,84.47
2018-11-28T06:03:51.749Z,84.60
2018-11-28T06:06:20.853Z,84.48
2018-11-28T06:08:50.590Z,84.70
2018-11-28T06:11:20.183Z,84.44
2018-11-28T06:13:49.313Z,84.41
2018-11-28T06:16:18.499Z,84.85
2018-11-28T06:18:47.883Z,84.74
2018-11-28T06:21:17.178Z,84.65
2018-11-28T06:23:46.385Z,84.52
2018-11-28T06:26:15.735Z,84.62
2018-11-28T06:28:46.183Z,84.81
2018-11-28T06:31:15.463Z,84.77
2018-11-28T06:33:44.593Z,84.61
2018-11-28T06:36:14.127Z,84.58
2018-11-28T06:38:44.613Z,84.36
2018-11-28T06:41:13.994Z,84.58
2018-11-28T06:43:43.162Z,84.80
2018-11-28T06:46:12.641Z,84.46
2018-11-28T06:48:42.611Z,84.13
2018-11-28T06:51:11.767Z,84.12
2018-11-28T06:53:41.123Z,84.41
2018-11-28T06:56:11.322Z,83.74
2018-11-28T06:58:42.608Z,83.99
2018-11-28T07:01:11.886Z,83.85
2018-11-28T07:03:41.006Z,83.80
2018-11-28T07:06:11.371Z,83.66
2018-11-28T07:08:42.905Z,83.86
2018-11-28T07:11:12.282Z,83.62
2018-11-28T07:13:41.470Z,83.55
2018-11-28T07:16:10.749Z,83.56
2018-11-28T07:18:51.845Z,83.83
2018-11-28T07:21:21.126Z,84.02
2018-11-28T07:23:50.247Z,84.15
2018-11-28T07:26:19.363Z,83.71
2018-11-28T07:28:49.035Z,84.03
2018-11-28T07:31:18.305Z,83.40
2018-11-28T07:33:47.493Z,83.76
2018-11-28T07:36:17.049Z,83.81
2018-11-28T07:38:46.295Z,84.30
2018-11-28T07:41:16.043Z,84.32
2018-11-28T07:43:45.263Z,83.93
2018-11-28T07:46:14.477Z,83.69
2018-11-28T07:48:43.666Z,83.91
2018-11-28T07:51:13.496Z,83.96
2018-11-28T07:53:43.486Z,83.60
2018-11-28T07:56:13.194Z,83.92
2018-11-28T07:58:42.319Z,83.30
2018-11-28T08:01:12.507Z,83.51
2018-11-28T08:03:41.864Z,83.34
2018-11-28T08:06:11.190Z,83.19
2018-11-28T08:08:40.301Z,83.20
2018-11-28T08:11:10.115Z,83.17
2018-11-28T08:13:39.350Z,83.06
2018-11-28T08:16:09.451Z,83.10
2018-11-28T08:18:38.629Z,83.62
2018-11-28T08:21:08.162Z,83.07
2018-11-28T08:23:37.434Z,83.19
2018-11-28T08:26:06.635Z,82.82
2018-11-28T08:28:36.189Z,83.49
2018-11-28T08:31:12.349Z,83.29
2018-11-28T08:33:41.663Z,83.02
2018-11-28T08:36:11.207Z,83.22
2018-11-28T08:38:40.725Z,83.12
2018-11-28T08:41:10.010Z,83.45
2018-11-28T08:43:39.285Z,83.21
2018-11-28T08:46:08.452Z,82.93
2018-11-28T08:48:37.718Z,83.13
2018-11-28T08:51:09.259Z,82.81
2018-11-28T08:53:38.409Z,82.86
2018-11-28T08:56:07.677Z,82.58
2018-11-28T08:58:36.878Z,82.19
2018-11-28T09:01:07.140Z,82.06
2018-11-28T09:03:36.394Z,82.06
2018-11-28T09:06:06.287Z,82.46
2018-11-28T09:08:36.047Z,82.24
2018-11-28T09:11:05.354Z,82.05
2018-11-28T09:13:35.235Z,82.37
2018-11-28T09:16:05.385Z,81.96
2018-11-28T09:18:34.735Z,81.92
2018-11-28T09:21:05.698Z,81.93
2018-11-28T09:23:34.971Z,81.63
2018-11-28T09:26:04.054Z,81.60
2018-11-28T09:28:33.327Z,81.75
2018-11-28T09:31:04.238Z,81.54
2018-11-28T09:33:33.479Z,81.83
2018-11-28T09:36:02.725Z,81.82
2018-11-28T09:38:31.834Z,81.84
2018-11-28T09:41:01.812Z,81.92
2018-11-28T09:43:32.325Z,81.64
2018-11-28T09:46:01.971Z,81.81
2018-11-28T09:48:32.153Z,81.96
2018-11-28T09:51:01.760Z,81.65
2018-11-28T09:53:31.020Z,82.07
2018-11-28T09:56:00.082Z,81.90
2018-11-28T09:58:33.658Z,81.48
2018-11-28T10:01:02.737Z,81.70
2018-11-28T10:03:31.935Z,81.63
2018-11-28T10:06:01.285Z,81.72
2018-11-28T10:08:30.968Z,81.95
2018-11-28T10:11:00.819Z,81.56
2018-11-28T10:13:30.714Z,81.31
2018-11-28T10:16:00.929Z,81.18
2018-11-28T10:18:29.223Z,81.01
2018-11-28T10:20:58.892Z,81.58
2018-11-28T10:23:28.028Z,81.36
2018-11-28T10:26:01.291Z,80.94
2018-11-28T10:28:30.491Z,80.70
2018-11-28T10:30:59.567Z,80.62
2018-11-28T10:33:28.587Z,80.81
2018-11-28T10:35:58.599Z,80.47
2018-11-28T10:38:27.875Z,80.29
2018-11-28T10:40:57.943Z,80.88
2018-11-28T10:43:27.230Z,80.90
2018-11-28T10:45:56.347Z,80.71
2018-11-28T10:48:25.365Z,80.65
2018-11-28T10:50:55.450Z,80.76
2018-11-28T10:53:24.650Z,81.32
2018-11-28T10:55:54.958Z,80.65
2018-11-28T10:58:24.055Z,80.86
2018-11-28T11:00:59.499Z,80.68
2018-11-28T11:03:33.666Z,80.61
2018-11-28T11:06:05.356Z,80.85
2018-11-28T11:08:45.272Z,80.55
2018-11-28T11:11:24.519Z,80.54
2018-11-28T11:13:59.081Z,80.03
2018-11-28T11:16:30.863Z,79.99
2018-11-28T11:19:00.307Z,80.46
2018-11-28T11:21:29.934Z,80.85
2018-11-28T11:23:59.255Z,80.28
2018-11-28T11:26:29.146Z,80.34
2018-11-28T11:28:58.285Z,80.40
2018-11-28T11:31:27.820Z,80.67
2018-11-28T11:33:57.228Z,81.07
2018-11-28T11:36:27.084Z,80.67
2018-11-28T11:38:56.228Z,80.88
2018-11-28T11:41:25.436Z,81.14
2018-11-28T11:43:54.619Z,81.11
2018-11-28T11:46:24.998Z,81.59
2018-11-28T11:48:54.778Z,81.65
2018-11-28T11:51:23.867Z,81.04
2018-11-28T11:53:53.330Z,81.27
2018-11-28T11:56:22.628Z,81.53
2018-11-28T11:58:52.616Z,81.96
2018-11-28T12:01:21.806Z,81.91
2018-11-28T12:03:50.910Z,82.02
2018-11-28T12:06:21.283Z,81.65
2018-11-28T12:08:58.166Z,80.69
2018-11-28T12:11:27.464Z,80.45
2018-11-28T12:13:56.638Z,80.45
2018-11-28T12:16:25.820Z,80.72
2018-11-28T12:18:55.207Z,80.83
2018-11-28T12:21:25.815Z,82.11
2018-11-28T12:23:54.952Z,81.50
2018-11-28T12:26:24.695Z,81.05
2018-11-28T12:28:53.957Z,80.97
2018-11-28T12:31:23.689Z,80.66
2018-11-28T12:33:52.780Z,79.80
2018-11-28T12:36:21.991Z,79.30
2018-11-28T12:38:51.880Z,78.98
2018-11-28T12:41:22.651Z,78.81
2018-11-28T12:43:52.193Z,78.34
2018-11-28T12:46:21.429Z,78.68
2018-11-28T12:48:51.126Z,78.39
2018-11-28T12:51:20.392Z,78.58
2018-11-28T12:53:50.376Z,78.62
2018-11-28T12:56:19.608Z,78.95
2018-11-28T13:04:48.264Z,78.60
2018-11-28T13:07:17.712Z,77.89
2018-11-28T13:09:47.051Z,77.94
2018-11-28T13:12:16.202Z,77.65
2018-11-28T13:14:45.700Z,76.96
2018-11-28T13:17:14.996Z,76.86
2018-11-28T13:19:44.402Z,76.92
2018-11-28T13:22:13.796Z,76.51
2018-11-28T13:24:43.105Z,76.34
2018-11-28T13:27:12.448Z,76.26
2018-11-28T13:29:41.931Z,75.93
2018-11-28T13:32:11.515Z,76.02
2018-11-28T13:34:41.627Z,75.91
2018-11-28T13:37:10.781Z,75.14
2018-11-28T13:39:40.537Z,74.67
2018-11-28T13:42:10.058Z,74.28
2018-11-28T13:44:39.278Z,74.02
2018-11-28T13:47:08.883Z,73.97
2018-11-28T13:49:38.049Z,73.81
2018-11-28T13:52:07.815Z,73.58
2018-11-28T13:55:36.839Z,73.81
2018-11-28T13:57:09.844Z,73.38
2018-11-28T13:59:40.943Z,73.26
2018-11-28T14:02:10.360Z,73.34
2018-11-28T14:04:41.162Z,73.19
2018-11-28T14:07:12.736Z,73.10
2018-11-28T14:09:42.252Z,72.58
2018-11-28T14:12:11.630Z,72.16
2018-11-28T14:14:40.979Z,72.38
2018-11-28T14:17:10.584Z,72.62
2018-11-28T14:19:40.952Z,72.56
2018-11-28T14:22:10.637Z,72.95
2018-11-28T14:24:39.789Z,72.95
2018-11-28T14:27:09.890Z,73.06
2018-11-28T14:29:39.034Z,73.14
2018-11-28T14:32:08.256Z,73.34
2018-11-28T14:34:37.457Z,73.69
2018-11-28T14:37:06.835Z,73.68
2018-11-28T14:39:36.411Z,73.49
2018-11-28T14:42:06.036Z,73.29
2018-11-28T14:44:36.057Z,73.04
2018-11-28T14:47:16.270Z,73.05
2018-11-28T14:49:45.545Z,72.93
2018-11-28T14:52:14.697Z,72.66
2018-11-28T14:54:44.362Z,72.60
2018-11-28T14:57:13.630Z,72.57
2018-11-28T14:59:42.817Z,72.65
2018-11-28T15:02:24.113Z,72.25
2018-11-28T15:04:53.210Z,72.43
2018-11-28T15:07:23.204Z,72.41
2018-11-28T15:09:53.172Z,72.83
2018-11-28T15:12:23.076Z,72.85
2018-11-28T15:14:53.595Z,72.67
2018-11-28T15:17:24.553Z,72.82
2018-11-28T15:19:55.824Z,72.59
2018-11-28T15:22:25.123Z,72.84
2018-11-28T15:25:00.377Z,73.12
2018-11-28T15:27:30.215Z,73.07
2018-11-28T15:30:00.067Z,72.82
2018-11-28T15:32:29.389Z,73.04
2018-11-28T15:34:58.538Z,72.78
2018-11-28T15:37:28.668Z,72.83
2018-11-28T15:39:58.254Z,72.93
2018-11-28T15:42:29.360Z,72.99
2018-11-28T15:44:58.693Z,73.18
2018-11-28T15:47:27.961Z,72.92
2018-11-28T15:49:58.279Z,72.73
2018-11-28T15:52:27.637Z,73.12
2018-11-28T15:54:56.673Z,73.25
2018-11-28T15:57:26.000Z,72.92
2018-11-28T15:59:55.252Z,73.06
2018-11-28T16:02:24.679Z,73.51
2018-11-28T16:04:53.883Z,73.26
2018-11-28T16:07:23.007Z,73.02
2018-11-28T16:09:57.155Z,73.10
2018-11-28T16:12:26.329Z,73.03
2018-11-28T16:14:55.548Z,73.30
2018-11-28T16:17:24.762Z,73.49
2018-11-28T16:19:53.815Z,73.81
2018-11-28T16:22:24.034Z,74.03
2018-11-28T16:24:53.186Z,73.87
2018-11-28T16:27:22.184Z,74.01
2018-11-28T16:29:51.232Z,74.06
2018-11-28T16:32:20.281Z,73.97
2018-11-28T16:34:49.391Z,74.08
2018-11-28T16:37:19.451Z,74.19
2018-11-28T16:39:48.652Z,74.35
2018-11-28T16:42:18.478Z,74.65
2018-11-28T16:44:47.526Z,74.59
2018-11-28T16:47:16.684Z,74.64
2018-11-28T16:49:45.876Z,74.65
2018-11-28T16:52:14.935Z,74.81
2018-11-28T16:54:44.023Z,74.78
2018-11-28T16:57:13.227Z,74.86
2018-11-28T16:59:42.516Z,74.75
2018-11-28T17:02:11.614Z,74.61
2018-11-28T17:04:40.787Z,74.65
2018-11-28T17:07:09.915Z,74.65
2018-11-28T17:09:39.046Z,74.55
2018-11-28T17:12:08.186Z,74.41
2018-11-28T17:14:37.571Z,74.62
2018-11-28T17:17:07.174Z,74.32
2018-11-28T17:19:36.266Z,74.38
2018-11-28T17:22:05.783Z,74.45
2018-11-28T17:24:34.924Z,74.60
2018-11-28T17:27:04.103Z,74.16
2018-11-28T17:29:33.195Z,74.41
2018-11-28T17:32:02.341Z,74.08
2018-11-28T17:34:31.639Z,74.19
2018-11-28T17:37:00.879Z,74.06
2018-11-28T17:39:30.111Z,74.12
2018-11-28T17:41:59.251Z,74.20
2018-11-28T17:44:28.591Z,74.08
2018-11-28T17:47:04.532Z,74.40
2018-11-28T17:49:33.586Z,73.86
2018-11-28T17:52:07.288Z,74.19
2018-11-28T17:54:37.457Z,73.93
2018-11-28T17:57:07.018Z,73.95
2018-11-28T17:59:36.738Z,74.06
2018-11-28T18:02:05.879Z,73.65
2018-11-28T18:04:35.054Z,73.89
2018-11-28T18:07:05.010Z,74.16
2018-11-28T18:09:35.850Z,74.55
2018-11-28T18:12:05.047Z,74.75
2018-11-28T18:14:34.620Z,75.21
2018-11-28T18:17:03.831Z,76.01
2018-11-28T18:19:33.967Z,76.38
2018-11-28T18:22:03.107Z,76.50
2018-11-28T18:24:32.283Z,77.07
2018-11-28T18:27:01.357Z,77.60
2018-11-28T18:29:30.494Z,77.94
2018-11-28T18:31:59.663Z,78.68
2018-11-28T18:34:28.760Z,78.63
2018-11-28T18:36:57.952Z,78.84
2018-11-28T18:39:27.194Z,79.09
2018-11-28T18:41:56.274Z,78.69
2018-11-28T18:44:25.322Z,78.33
2018-11-28T18:46:54.434Z,78.67
2018-11-28T18:49:23.612Z,78.64
2018-11-28T18:51:52.762Z,78.35
2018-11-28T18:54:22.598Z,78.45
2018-11-28T18:56:51.957Z,78.34
2018-11-28T18:59:21.091Z,78.45
2018-11-28T19:01:50.489Z,78.29
2018-11-28T19:04:19.748Z,78.35
2018-11-28T19:06:49.092Z,78.23
2018-11-28T19:09:23.294Z,78.09
2018-11-28T19:11:52.693Z,78.14
2018-11-28T19:14:21.972Z,78.13
2018-11-28T19:16:51.641Z,77.96
2018-11-28T19:19:21.105Z,77.69
2018-11-28T19:21:50.524Z,77.52
2018-11-28T19:24:20.603Z,77.20
2018-11-28T19:26:49.785Z,76.89
2018-11-28T19:29:19.763Z,76.99
2018-11-28T19:31:48.800Z,76.88
2018-11-28T19:34:18.284Z,77.15
2018-11-28T19:36:47.174Z,77.21
2018-11-28T19:39:16.468Z,77.06
2018-11-28T19:41:45.564Z,77.16
2018-11-28T19:44:14.654Z,76.98
2018-11-28T19:46:43.815Z,77.00
2018-11-28T19:49:12.928Z,76.97
2018-11-28T19:51:42.048Z,77.05
2018-11-28T19:54:11.238Z,77.04
2018-11-28T19:56:40.475Z,77.12
2018-11-28T19:59:09.508Z,77.06
2018-11-28T20:01:38.706Z,77.22
2018-11-28T20:04:08.056Z,76.98
2018-11-28T20:06:38.171Z,77.12
2018-11-28T20:09:14.883Z,76.91
2018-11-28T20:11:44.020Z,77.17
2018-11-28T20:14:13.646Z,77.28
2018-11-28T20:16:42.835Z,77.22
2018-11-28T20:19:17.415Z,77.39
2018-11-28T20:21:41.295Z,77.33
2018-11-28T20:24:10.888Z,77.28
2018-11-28T20:26:40.147Z,77.37
2018-11-28T20:29:09.627Z,77.33
2018-11-28T20:31:38.825Z,77.49
2018-11-28T20:34:07.868Z,77.48
2018-11-28T20:36:37.099Z,77.62
2018-11-28T20:39:09.182Z,77.73
2018-11-28T20:41:38.334Z,77.88
2018-11-28T20:44:07.545Z,77.94
2018-11-28T20:46:36.726Z,77.90
2018-11-28T20:49:05.867Z,77.95
2018-11-28T20:51:34.995Z,78.27
2018-11-28T20:54:04.213Z,78.25
2018-11-28T20:56:33.345Z,78.28
2018-11-28T20:59:02.532Z,78.53
2018-11-28T21:01:31.721Z,78.60
2018-11-28T21:04:01.152Z,78.53
2018-11-28T21:06:30.321Z,78.80
2018-11-28T21:08:59.396Z,78.71
2018-11-28T21:11:28.511Z,79.00
2018-11-28T21:13:57.736Z,79.12
2018-11-28T21:16:26.960Z,78.87
2018-11-28T21:18:56.027Z,79.10
2018-11-28T21:21:27.512Z,79.08
2018-11-28T21:23:56.517Z,79.26
2018-11-28T21:26:25.648Z,79.41
2018-11-28T21:28:54.743Z,79.48
2018-11-28T21:31:23.813Z,79.25
2018-11-28T21:33:52.828Z,79.46
2018-11-28T21:36:21.987Z,79.36
2018-11-28T21:38:51.063Z,79.41
2018-11-28T21:41:20.200Z,79.52
2018-11-28T21:43:52.888Z,79.48
2018-11-28T21:46:25.168Z,79.62
2018-11-28T21:48:57.840Z,79.75
2018-11-28T21:51:33.374Z,79.69
2018-11-28T21:54:06.247Z,79.54
2018-11-28T21:56:39.586Z,79.76
2018-11-28T21:59:11.201Z,79.69
2018-11-28T22:01:42.446Z,79.72
2018-11-28T22:04:14.931Z,79.73
2018-11-28T22:06:44.037Z,79.77
2018-11-28T22:09:13.139Z,79.68
2018-11-28T22:11:42.326Z,79.79
2018-11-28T22:14:11.908Z,79.91
2018-11-28T22:16:41.022Z,79.92
2018-11-28T22:19:10.145Z,79.67
2018-11-28T22:21:39.174Z,79.75
2018-11-28T22:24:08.314Z,79.61
2018-11-28T22:26:37.432Z,79.71
2018-11-28T22:29:06.955Z,79.70
2018-11-28T22:31:35.993Z,79.66
2018-11-28T22:34:05.106Z,79.70
2018-11-28T22:36:35.085Z,79.75
2018-11-28T22:39:05.448Z,79.73
2018-11-28T22:41:34.655Z,79.67
2018-11-28T22:44:03.819Z,79.82
2018-11-28T22:46:32.936Z,79.72
2018-11-28T22:49:02.190Z,79.91
2018-11-28T22:51:31.310Z,79.80
2018-11-28T22:54:00.518Z,79.84
2018-11-28T22:56:29.643Z,79.79
2018-11-28T22:58:58.750Z,79.91
2018-11-28T23:01:42.763Z,79.81
2018-11-28T23:04:12.608Z,79.80
2018-11-28T23:06:44.572Z,79.73
2018-11-28T23:09:13.630Z,79.86
2018-11-28T23:11:42.753Z,79.95
2018-11-28T23:14:11.807Z,79.84
2018-11-28T23:16:40.876Z,79.76
2018-11-28T23:19:09.998Z,79.75
2018-11-28T23:21:39.145Z,79.80
2018-11-28T23:24:08.221Z,79.58
2018-11-28T23:26:37.261Z,79.74
2018-11-28T23:29:06.431Z,79.65
2018-11-28T23:31:35.569Z,79.62
2018-11-28T23:34:04.641Z,79.63
2018-11-28T23:36:33.700Z,79.69
2018-11-28T23:39:02.876Z,79.69
2018-11-28T23:41:31.951Z,79.66
2018-11-28T23:44:19.073Z,79.71
2018-11-28T23:47:06.027Z,79.57
2018-11-28T23:49:52.129Z,79.65
2018-11-28T23:52:21.457Z,79.53
2018-11-28T23:55:07.678Z,79.43
2018-11-28T23:57:54.033Z,79.65
